sensor_id;sensor_type;location;lat;lon;timestamp;pressure;altitude;pressure_sealevel;temperature;humidity
38530;BME280;24301;54.332;48.386;2022-12-10T00:00:02;100113.16;;;-8.96;68.23
38530;BME280;24301;54.332;48.386;2022-12-10T00:02:31;100100.66;;;-8.93;69.04
38530;BME280;24301;54.332;48.386;2022-12-10T00:04:57;100095.16;;;-8.98;69.38
38530;BME280;24301;54.332;48.386;2022-12-10T00:07:23;100100.53;;;-9.05;68.84
38530;BME280;24301;54.332;48.386;2022-12-10T00:09:48;100098.91;;;-9.04;70.00
38530;BME280;24301;54.332;48.386;2022-12-10T00:12:14;100102.56;;;-9.01;69.36
38530;BME280;24301;54.332;48.386;2022-12-10T00:14:40;100099.88;;;-8.92;69.46
38530;BME280;24301;54.332;48.386;2022-12-10T00:17:06;100107.38;;;-8.83;69.19
38530;BME280;24301;54.332;48.386;2022-12-10T00:19:32;100078.28;;;-8.75;69.36
38530;BME280;24301;54.332;48.386;2022-12-10T00:21:58;100086.69;;;-8.66;68.86
38530;BME280;24301;54.332;48.386;2022-12-10T00:24:23;100091.34;;;-8.60;68.69
38530;BME280;24301;54.332;48.386;2022-12-10T00:26:49;100101.69;;;-8.58;68.32
38530;BME280;24301;54.332;48.386;2022-12-10T00:29:16;100071.31;;;-8.55;68.22
38530;BME280;24301;54.332;48.386;2022-12-10T00:31:41;100085.38;;;-8.60;68.46
38530;BME280;24301;54.332;48.386;2022-12-10T00:34:10;100060.09;;;-8.57;68.96
38530;BME280;24301;54.332;48.386;2022-12-10T00:36:45;100067.38;;;-8.52;68.66
38530;BME280;24301;54.332;48.386;2022-12-10T00:39:14;100067.41;;;-8.40;68.41
38530;BME280;24301;54.332;48.386;2022-12-10T00:41:40;100076.16;;;-8.36;68.12
38530;BME280;24301;54.332;48.386;2022-12-10T00:44:06;100083.97;;;-8.34;68.38
38530;BME280;24301;54.332;48.386;2022-12-10T00:46:32;100068.66;;;-8.34;68.27
38530;BME280;24301;54.332;48.386;2022-12-10T00:48:59;100071.44;;;-8.31;68.62
38530;BME280;24301;54.332;48.386;2022-12-10T00:51:27;100066.22;;;-8.33;68.72
38530;BME280;24301;54.332;48.386;2022-12-10T00:53:55;100049.59;;;-8.28;68.79
38530;BME280;24301;54.332;48.386;2022-12-10T00:56:26;100053.63;;;-8.19;68.33
38530;BME280;24301;54.332;48.386;2022-12-10T00:58:52;100060.09;;;-8.13;67.96
38530;BME280;24301;54.332;48.386;2022-12-10T01:01:21;100018.72;;;-8.09;68.40
38530;BME280;24301;54.332;48.386;2022-12-10T01:03:48;100042.63;;;-7.96;68.18
38530;BME280;24301;54.332;48.386;2022-12-10T01:06:21;100007.34;;;-7.90;68.00
38530;BME280;24301;54.332;48.386;2022-12-10T01:08:49;100040.47;;;-7.80;67.58
38530;BME280;24301;54.332;48.386;2022-12-10T01:11:16;100032.69;;;-7.81;67.50
38530;BME280;24301;54.332;48.386;2022-12-10T01:13:45;100006.25;;;-7.82;67.41
38530;BME280;24301;54.332;48.386;2022-12-10T01:16:12;100039.31;;;-7.95;67.74
38530;BME280;24301;54.332;48.386;2022-12-10T01:18:39;100058.84;;;-7.96;68.17
38530;BME280;24301;54.332;48.386;2022-12-10T01:21:11;100029.53;;;-8.01;67.59
38530;BME280;24301;54.332;48.386;2022-12-10T01:23:40;100034.44;;;-7.92;67.98
38530;BME280;24301;54.332;48.386;2022-12-10T01:26:09;100044.44;;;-7.83;67.27
38530;BME280;24301;54.332;48.386;2022-12-10T01:28:37;100002.94;;;-7.81;67.16
38530;BME280;24301;54.332;48.386;2022-12-10T01:31:13;100017.16;;;-7.72;66.57
38530;BME280;24301;54.332;48.386;2022-12-10T01:33:40;100005.28;;;-7.72;66.34
38530;BME280;24301;54.332;48.386;2022-12-10T01:36:08;100026.59;;;-7.71;66.30
38530;BME280;24301;54.332;48.386;2022-12-10T01:38:35;100040.28;;;-7.59;65.70
38530;BME280;24301;54.332;48.386;2022-12-10T01:41:04;100007.75;;;-7.50;65.56
38530;BME280;24301;54.332;48.386;2022-12-10T01:46:32;100039.44;;;-7.36;65.02
38530;BME280;24301;54.332;48.386;2022-12-10T01:49:00;100031.69;;;-7.25;64.97
38530;BME280;24301;54.332;48.386;2022-12-10T01:51:29;100024.09;;;-7.24;64.67
38530;BME280;24301;54.332;48.386;2022-12-10T01:53:55;100014.66;;;-7.25;64.66
38530;BME280;24301;54.332;48.386;2022-12-10T01:56:22;100026.88;;;-7.21;64.30
38530;BME280;24301;54.332;48.386;2022-12-10T01:58:51;100020.13;;;-7.20;64.16
38530;BME280;24301;54.332;48.386;2022-12-10T02:04:29;100006.13;;;-7.25;64.46
38530;BME280;24301;54.332;48.386;2022-12-10T02:07:02;100015.44;;;-7.26;64.28
38530;BME280;24301;54.332;48.386;2022-12-10T02:09:50;100013.34;;;-7.31;64.18
38530;BME280;24301;54.332;48.386;2022-12-10T02:12:24;100008.34;;;-7.30;64.32
38530;BME280;24301;54.332;48.386;2022-12-10T02:17:52;99983.69;;;-7.17;63.46
38530;BME280;24301;54.332;48.386;2022-12-10T02:20:24;100000.22;;;-7.12;63.07
38530;BME280;24301;54.332;48.386;2022-12-10T02:22:58;99968.97;;;-7.08;62.68
38530;BME280;24301;54.332;48.386;2022-12-10T02:25:32;99994.34;;;-7.11;60.87
38530;BME280;24301;54.332;48.386;2022-12-10T02:30:56;99973.44;;;-7.05;60.35
38530;BME280;24301;54.332;48.386;2022-12-10T02:33:24;99941.97;;;-7.04;59.85
38530;BME280;24301;54.332;48.386;2022-12-10T02:35:52;99968.53;;;-7.02;59.37
38530;BME280;24301;54.332;48.386;2022-12-10T02:38:24;99977.88;;;-7.03;59.01
38530;BME280;24301;54.332;48.386;2022-12-10T02:40:59;99961.66;;;-7.03;59.32
38530;BME280;24301;54.332;48.386;2022-12-10T02:43:27;99971.97;;;-7.02;58.66
38530;BME280;24301;54.332;48.386;2022-12-10T02:45:55;99969.41;;;-7.02;58.31
38530;BME280;24301;54.332;48.386;2022-12-10T02:48:22;99927.50;;;-7.04;57.51
38530;BME280;24301;54.332;48.386;2022-12-10T02:50:49;99956.97;;;-7.09;57.48
38530;BME280;24301;54.332;48.386;2022-12-10T02:53:15;99948.97;;;-7.14;57.56
38530;BME280;24301;54.332;48.386;2022-12-10T02:55:56;99958.75;;;-7.08;57.68
38530;BME280;24301;54.332;48.386;2022-12-10T02:58:37;99961.31;;;-7.08;57.71
38530;BME280;24301;54.332;48.386;2022-12-10T03:03:53;99969.63;;;-6.99;56.87
38530;BME280;24301;54.332;48.386;2022-12-10T03:06:29;99951.94;;;-6.96;56.87
38530;BME280;24301;54.332;48.386;2022-12-10T03:09:05;99961.19;;;-6.98;56.82
38530;BME280;24301;54.332;48.386;2022-12-10T03:11:32;99965.41;;;-6.98;56.02
38530;BME280;24301;54.332;48.386;2022-12-10T03:14:06;99974.53;;;-7.02;56.42
38530;BME280;24301;54.332;48.386;2022-12-10T03:16:39;99963.84;;;-6.96;56.45
38530;BME280;24301;54.332;48.386;2022-12-10T03:19:10;99957.19;;;-6.94;56.07
38530;BME280;24301;54.332;48.386;2022-12-10T03:21:38;99960.19;;;-7.00;55.48
38530;BME280;24301;54.332;48.386;2022-12-10T03:24:08;99946.97;;;-7.06;55.88
38530;BME280;24301;54.332;48.386;2022-12-10T03:26:36;99882.38;;;-7.03;55.79
38530;BME280;24301;54.332;48.386;2022-12-10T03:29:07;99934.31;;;-7.04;55.49
38530;BME280;24301;54.332;48.386;2022-12-10T03:31:34;99929.84;;;-7.07;55.36
38530;BME280;24301;54.332;48.386;2022-12-10T03:34:02;99917.19;;;-7.05;54.85
38530;BME280;24301;54.332;48.386;2022-12-10T03:36:29;99918.97;;;-7.04;54.86
38530;BME280;24301;54.332;48.386;2022-12-10T03:38:56;99935.09;;;-7.17;55.06
38530;BME280;24301;54.332;48.386;2022-12-10T03:41:23;99913.88;;;-7.16;54.99
38530;BME280;24301;54.332;48.386;2022-12-10T03:43:54;99880.06;;;-7.12;54.96
38530;BME280;24301;54.332;48.386;2022-12-10T03:46:21;99929.22;;;-7.16;55.12
38530;BME280;24301;54.332;48.386;2022-12-10T03:48:48;99946.31;;;-7.15;55.57
38530;BME280;24301;54.332;48.386;2022-12-10T03:51:14;99956.09;;;-7.22;55.63
38530;BME280;24301;54.332;48.386;2022-12-10T03:53:40;99912.97;;;-7.29;55.77
38530;BME280;24301;54.332;48.386;2022-12-10T03:56:06;99906.78;;;-7.44;55.87
38530;BME280;24301;54.332;48.386;2022-12-10T03:58:32;99912.13;;;-7.41;56.04
38530;BME280;24301;54.332;48.386;2022-12-10T04:00:58;99927.22;;;-7.44;56.07
38530;BME280;24301;54.332;48.386;2022-12-10T04:03:24;99922.34;;;-7.41;56.63
38530;BME280;24301;54.332;48.386;2022-12-10T04:05:50;99932.09;;;-7.47;56.48
38530;BME280;24301;54.332;48.386;2022-12-10T04:08:16;99930.31;;;-7.48;56.96
38530;BME280;24301;54.332;48.386;2022-12-10T04:10:42;99950.88;;;-7.47;57.11
38530;BME280;24301;54.332;48.386;2022-12-10T04:13:08;99920.09;;;-7.48;57.49
38530;BME280;24301;54.332;48.386;2022-12-10T04:15:52;99939.22;;;-7.43;57.68
38530;BME280;24301;54.332;48.386;2022-12-10T04:18:36;99934.78;;;-7.46;58.25
38530;BME280;24301;54.332;48.386;2022-12-10T04:21:02;99953.88;;;-7.41;58.23
38530;BME280;24301;54.332;48.386;2022-12-10T04:23:46;99952.31;;;-7.51;58.45
38530;BME280;24301;54.332;48.386;2022-12-10T04:26:31;99952.78;;;-7.56;58.61
38530;BME280;24301;54.332;48.386;2022-12-10T04:29:15;99968.88;;;-7.57;59.30
38530;BME280;24301;54.332;48.386;2022-12-10T04:31:41;99958.19;;;-7.52;59.42
38530;BME280;24301;54.332;48.386;2022-12-10T04:34:07;99966.56;;;-7.42;59.77
38530;BME280;24301;54.332;48.386;2022-12-10T04:36:33;99958.78;;;-7.32;59.76
38530;BME280;24301;54.332;48.386;2022-12-10T04:38:58;99978.56;;;-7.29;60.05
38530;BME280;24301;54.332;48.386;2022-12-10T04:41:24;99972.34;;;-7.33;59.92
38530;BME280;24301;54.332;48.386;2022-12-10T04:43:52;99971.69;;;-7.30;60.71
38530;BME280;24301;54.332;48.386;2022-12-10T04:46:18;99960.53;;;-7.31;60.98
38530;BME280;24301;54.332;48.386;2022-12-10T04:48:43;99977.00;;;-7.15;61.12
38530;BME280;24301;54.332;48.386;2022-12-10T04:51:09;99975.66;;;-7.10;61.39
38530;BME280;24301;54.332;48.386;2022-12-10T04:53:35;99959.53;;;-7.09;61.54
38530;BME280;24301;54.332;48.386;2022-12-10T04:56:01;99971.31;;;-6.99;61.50
38530;BME280;24301;54.332;48.386;2022-12-10T04:58:31;99943.53;;;-7.07;61.91
38530;BME280;24301;54.332;48.386;2022-12-10T05:01:07;99950.31;;;-7.07;61.99
38530;BME280;24301;54.332;48.386;2022-12-10T05:03:35;99957.22;;;-7.18;61.96
38530;BME280;24301;54.332;48.386;2022-12-10T05:06:02;99958.78;;;-7.32;62.43
38530;BME280;24301;54.332;48.386;2022-12-10T05:08:29;99935.00;;;-7.55;63.64
38530;BME280;24301;54.332;48.386;2022-12-10T05:11:03;99938.31;;;-7.80;64.87
38530;BME280;24301;54.332;48.386;2022-12-10T05:13:29;99930.09;;;-7.75;64.64
38530;BME280;24301;54.332;48.386;2022-12-10T05:15:56;99915.88;;;-7.84;65.99
38530;BME280;24301;54.332;48.386;2022-12-10T05:18:22;99915.53;;;-7.76;65.95
38530;BME280;24301;54.332;48.386;2022-12-10T05:20:48;99921.19;;;-7.81;67.10
38530;BME280;24301;54.332;48.386;2022-12-10T05:23:15;99910.13;;;-7.69;66.64
38530;BME280;24301;54.332;48.386;2022-12-10T05:28:34;99908.78;;;-7.40;67.04
38530;BME280;24301;54.332;48.386;2022-12-10T05:31:00;99924.13;;;-7.40;68.01
38530;BME280;24301;54.332;48.386;2022-12-10T05:33:27;99933.00;;;-7.35;67.11
38530;BME280;24301;54.332;48.386;2022-12-10T05:35:59;99932.44;;;-7.31;67.67
38530;BME280;24301;54.332;48.386;2022-12-10T05:38:26;99947.91;;;-7.41;68.41
38530;BME280;24301;54.332;48.386;2022-12-10T05:40:53;99927.09;;;-7.46;68.63
38530;BME280;24301;54.332;48.386;2022-12-10T05:43:19;99941.22;;;-7.39;69.03
38530;BME280;24301;54.332;48.386;2022-12-10T05:45:45;99916.44;;;-7.40;69.32
38530;BME280;24301;54.332;48.386;2022-12-10T05:48:14;99903.75;;;-7.39;69.68
38530;BME280;24301;54.332;48.386;2022-12-10T05:50:40;99942.09;;;-7.39;69.53
38530;BME280;24301;54.332;48.386;2022-12-10T05:53:06;99944.56;;;-7.40;69.95
38530;BME280;24301;54.332;48.386;2022-12-10T05:55:33;99931.00;;;-7.39;69.49
38530;BME280;24301;54.332;48.386;2022-12-10T05:57:59;99941.53;;;-7.23;69.83
38530;BME280;24301;54.332;48.386;2022-12-10T06:00:27;99928.22;;;-7.30;69.99
38530;BME280;24301;54.332;48.386;2022-12-10T06:02:54;99914.97;;;-7.25;70.15
38530;BME280;24301;54.332;48.386;2022-12-10T06:05:21;99930.09;;;-7.28;70.63
38530;BME280;24301;54.332;48.386;2022-12-10T06:07:47;99915.44;;;-7.30;70.91
38530;BME280;24301;54.332;48.386;2022-12-10T06:10:13;99937.53;;;-7.43;70.57
38530;BME280;24301;54.332;48.386;2022-12-10T06:12:39;99898.09;;;-7.58;71.98
38530;BME280;24301;54.332;48.386;2022-12-10T06:15:05;99923.56;;;-7.60;72.26
38530;BME280;24301;54.332;48.386;2022-12-10T06:17:31;99917.09;;;-7.67;72.14
38530;BME280;24301;54.332;48.386;2022-12-10T06:19:57;99927.75;;;-7.72;72.83
38530;BME280;24301;54.332;48.386;2022-12-10T06:22:23;99922.97;;;-7.80;73.34
38530;BME280;24301;54.332;48.386;2022-12-10T06:24:49;99925.66;;;-7.78;73.55
38530;BME280;24301;54.332;48.386;2022-12-10T06:27:15;99915.66;;;-7.87;73.51
38530;BME280;24301;54.332;48.386;2022-12-10T06:29:41;99910.31;;;-7.90;73.66
38530;BME280;24301;54.332;48.386;2022-12-10T06:32:07;99902.09;;;-7.86;73.30
38530;BME280;24301;54.332;48.386;2022-12-10T06:34:33;99904.09;;;-7.82;73.77
38530;BME280;24301;54.332;48.386;2022-12-10T06:36:59;99896.34;;;-7.95;74.22
38530;BME280;24301;54.332;48.386;2022-12-10T06:39:25;99917.28;;;-7.87;73.55
38530;BME280;24301;54.332;48.386;2022-12-10T06:41:51;99896.78;;;-7.89;73.83
38530;BME280;24301;54.332;48.386;2022-12-10T06:44:17;99911.88;;;-7.92;74.50
38530;BME280;24301;54.332;48.386;2022-12-10T06:46:43;99930.75;;;-7.90;74.70
38530;BME280;24301;54.332;48.386;2022-12-10T06:49:09;99934.31;;;-7.88;74.64
38530;BME280;24301;54.332;48.386;2022-12-10T06:51:35;99916.75;;;-7.83;74.54
38530;BME280;24301;54.332;48.386;2022-12-10T06:54:04;99941.84;;;-7.77;75.17
38530;BME280;24301;54.332;48.386;2022-12-10T06:56:30;99930.78;;;-7.66;74.61
38530;BME280;24301;54.332;48.386;2022-12-10T06:58:56;99932.09;;;-7.59;74.79
38530;BME280;24301;54.332;48.386;2022-12-10T07:01:24;99932.00;;;-7.61;75.27
38530;BME280;24301;54.332;48.386;2022-12-10T07:03:55;99952.09;;;-7.54;75.25
38530;BME280;24301;54.332;48.386;2022-12-10T07:06:22;99931.09;;;-7.50;74.99
38530;BME280;24301;54.332;48.386;2022-12-10T07:08:50;99916.75;;;-7.47;75.09
38530;BME280;24301;54.332;48.386;2022-12-10T07:11:20;99933.09;;;-7.45;75.38
38530;BME280;24301;54.332;48.386;2022-12-10T07:13:47;99934.13;;;-7.43;75.41
38530;BME280;24301;54.332;48.386;2022-12-10T07:18:43;99932.78;;;-7.38;75.74
38530;BME280;24301;54.332;48.386;2022-12-10T07:21:17;99914.53;;;-7.31;75.33
38530;BME280;24301;54.332;48.386;2022-12-10T07:23:43;99931.63;;;-7.18;75.41
38530;BME280;24301;54.332;48.386;2022-12-10T07:26:10;99908.84;;;-7.15;75.38
38530;BME280;24301;54.332;48.386;2022-12-10T07:28:36;99928.44;;;-7.15;74.84
38530;BME280;24301;54.332;48.386;2022-12-10T07:31:03;99909.28;;;-7.09;74.50
38530;BME280;24301;54.332;48.386;2022-12-10T07:33:29;99925.72;;;-7.05;74.67
38530;BME280;24301;54.332;48.386;2022-12-10T07:35:56;99900.50;;;-7.00;74.44
38530;BME280;24301;54.332;48.386;2022-12-10T07:38:23;99908.13;;;-6.88;74.72
38530;BME280;24301;54.332;48.386;2022-12-10T07:40:49;99884.88;;;-6.80;74.09
38530;BME280;24301;54.332;48.386;2022-12-10T07:43:16;99907.53;;;-6.72;73.88
38530;BME280;24301;54.332;48.386;2022-12-10T07:45:42;99886.38;;;-6.70;74.07
38530;BME280;24301;54.332;48.386;2022-12-10T07:48:09;99897.38;;;-6.71;73.70
38530;BME280;24301;54.332;48.386;2022-12-10T07:50:35;99877.28;;;-6.78;73.31
38530;BME280;24301;54.332;48.386;2022-12-10T07:53:02;99897.53;;;-6.81;73.65
38530;BME280;24301;54.332;48.386;2022-12-10T07:55:28;99864.94;;;-6.84;73.75
38530;BME280;24301;54.332;48.386;2022-12-10T07:57:54;99901.72;;;-6.70;73.88
38530;BME280;24301;54.332;48.386;2022-12-10T08:00:20;99843.19;;;-6.65;73.96
38530;BME280;24301;54.332;48.386;2022-12-10T08:02:45;99863.28;;;-6.58;74.00
38530;BME280;24301;54.332;48.386;2022-12-10T08:05:11;99875.88;;;-6.61;73.53
38530;BME280;24301;54.332;48.386;2022-12-10T08:07:37;99866.75;;;-6.57;73.55
38530;BME280;24301;54.332;48.386;2022-12-10T08:10:04;99862.41;;;-6.58;73.60
38530;BME280;24301;54.332;48.386;2022-12-10T08:12:30;99854.28;;;-6.53;73.77
38530;BME280;24301;54.332;48.386;2022-12-10T08:14:56;99859.41;;;-6.53;73.50
38530;BME280;24301;54.332;48.386;2022-12-10T08:17:21;99837.75;;;-6.44;73.43
38530;BME280;24301;54.332;48.386;2022-12-10T08:19:47;99811.25;;;-6.45;73.10
38530;BME280;24301;54.332;48.386;2022-12-10T08:22:14;99852.66;;;-6.39;73.58
38530;BME280;24301;54.332;48.386;2022-12-10T08:24:40;99863.81;;;-6.50;73.22
38530;BME280;24301;54.332;48.386;2022-12-10T08:27:06;99828.97;;;-6.48;73.17
38530;BME280;24301;54.332;48.386;2022-12-10T08:29:32;99835.50;;;-6.40;73.81
38530;BME280;24301;54.332;48.386;2022-12-10T08:31:58;99829.63;;;-6.25;73.69
38530;BME280;24301;54.332;48.386;2022-12-10T08:34:24;99854.56;;;-6.23;73.13
38530;BME280;24301;54.332;48.386;2022-12-10T08:36:50;99876.22;;;-6.17;72.75
38530;BME280;24301;54.332;48.386;2022-12-10T08:39:16;99874.97;;;-6.11;72.28
38530;BME280;24301;54.332;48.386;2022-12-10T08:41:44;99883.84;;;-6.06;72.59
38530;BME280;24301;54.332;48.386;2022-12-10T08:44:11;99867.78;;;-6.03;72.17
38530;BME280;24301;54.332;48.386;2022-12-10T08:46:37;99841.38;;;-6.02;71.97
38530;BME280;24301;54.332;48.386;2022-12-10T08:49:04;99841.84;;;-5.94;71.65
38530;BME280;24301;54.332;48.386;2022-12-10T08:51:32;99854.88;;;-5.91;71.52
38530;BME280;24301;54.332;48.386;2022-12-10T08:53:58;99874.38;;;-5.93;71.54
38530;BME280;24301;54.332;48.386;2022-12-10T08:56:24;99875.25;;;-5.93;71.51
38530;BME280;24301;54.332;48.386;2022-12-10T08:58:51;99852.00;;;-5.96;71.44
38530;BME280;24301;54.332;48.386;2022-12-10T09:01:18;99883.59;;;-5.95;71.67
38530;BME280;24301;54.332;48.386;2022-12-10T09:03:44;99867.69;;;-5.91;71.70
38530;BME280;24301;54.332;48.386;2022-12-10T09:06:16;99879.69;;;-5.90;71.68
38530;BME280;24301;54.332;48.386;2022-12-10T09:08:43;99846.88;;;-5.82;71.56
38530;BME280;24301;54.332;48.386;2022-12-10T09:11:14;99871.50;;;-5.84;71.47
38530;BME280;24301;54.332;48.386;2022-12-10T09:13:41;99858.88;;;-5.81;71.53
38530;BME280;24301;54.332;48.386;2022-12-10T09:16:07;99852.88;;;-5.82;71.64
38530;BME280;24301;54.332;48.386;2022-12-10T09:18:34;99859.97;;;-5.78;71.92
38530;BME280;24301;54.332;48.386;2022-12-10T09:21:06;99852.59;;;-5.73;71.90
38530;BME280;24301;54.332;48.386;2022-12-10T09:23:32;99886.69;;;-5.74;71.63
38530;BME280;24301;54.332;48.386;2022-12-10T09:25:57;99862.75;;;-5.74;71.54
38530;BME280;24301;54.332;48.386;2022-12-10T09:28:23;99839.41;;;-5.79;71.85
38530;BME280;24301;54.332;48.386;2022-12-10T09:30:59;99870.63;;;-5.71;71.96
38530;BME280;24301;54.332;48.386;2022-12-10T09:33:27;99854.06;;;-5.77;71.69
38530;BME280;24301;54.332;48.386;2022-12-10T09:35:53;99858.41;;;-5.75;72.12
38530;BME280;24301;54.332;48.386;2022-12-10T09:38:19;99840.59;;;-5.74;72.26
38530;BME280;24301;54.332;48.386;2022-12-10T09:41:02;99851.88;;;-5.70;72.13
38530;BME280;24301;54.332;48.386;2022-12-10T09:43:47;99871.81;;;-5.80;72.41
38530;BME280;24301;54.332;48.386;2022-12-10T09:51:25;99800.88;;;-5.81;72.93
38530;BME280;24301;54.332;48.386;2022-12-10T09:53:53;99819.19;;;-5.74;73.13
38530;BME280;24301;54.332;48.386;2022-12-10T09:56:33;99839.06;;;-5.70;73.23
38530;BME280;24301;54.332;48.386;2022-12-10T09:59:03;99853.88;;;-5.66;73.33
38530;BME280;24301;54.332;48.386;2022-12-10T10:01:32;99855.66;;;-5.65;73.09
38530;BME280;24301;54.332;48.386;2022-12-10T10:04:00;99869.47;;;-5.63;73.49
38530;BME280;24301;54.332;48.386;2022-12-10T10:06:27;99847.19;;;-5.64;73.29
38530;BME280;24301;54.332;48.386;2022-12-10T10:08:56;99841.47;;;-5.60;73.62
38530;BME280;24301;54.332;48.386;2022-12-10T10:11:29;99838.97;;;-5.58;73.64
38530;BME280;24301;54.332;48.386;2022-12-10T10:14:04;99846.66;;;-5.58;73.62
38530;BME280;24301;54.332;48.386;2022-12-10T10:21:49;99819.56;;;-5.55;73.77
38530;BME280;24301;54.332;48.386;2022-12-10T10:24:19;99800.03;;;-5.53;74.02
38530;BME280;24301;54.332;48.386;2022-12-10T10:26:47;99839.97;;;-5.56;73.96
38530;BME280;24301;54.332;48.386;2022-12-10T10:29:17;99831.09;;;-5.48;73.57
38530;BME280;24301;54.332;48.386;2022-12-10T10:31:44;99798.75;;;-5.46;73.73
38530;BME280;24301;54.332;48.386;2022-12-10T10:34:17;99844.28;;;-5.42;73.63
38530;BME280;24301;54.332;48.386;2022-12-10T10:36:44;99857.22;;;-5.40;73.36
38530;BME280;24301;54.332;48.386;2022-12-10T10:39:21;99836.72;;;-5.40;73.85
38530;BME280;24301;54.332;48.386;2022-12-10T10:41:53;99838.69;;;-5.36;73.31
38530;BME280;24301;54.332;48.386;2022-12-10T10:44:21;99833.75;;;-5.33;73.32
38530;BME280;24301;54.332;48.386;2022-12-10T10:46:52;99850.09;;;-5.31;73.52
38530;BME280;24301;54.332;48.386;2022-12-10T10:49:23;99846.75;;;-5.30;73.12
38530;BME280;24301;54.332;48.386;2022-12-10T10:51:51;99832.34;;;-5.28;73.22
38530;BME280;24301;54.332;48.386;2022-12-10T10:54:37;99804.44;;;-5.23;73.22
38530;BME280;24301;54.332;48.386;2022-12-10T10:57:11;99836.97;;;-5.22;72.84
38530;BME280;24301;54.332;48.386;2022-12-10T10:59:38;99829.28;;;-5.22;73.10
38530;BME280;24301;54.332;48.386;2022-12-10T11:02:18;99848.03;;;-5.23;72.45
38530;BME280;24301;54.332;48.386;2022-12-10T11:04:52;99838.44;;;-5.26;72.99
38530;BME280;24301;54.332;48.386;2022-12-10T11:07:26;99850.22;;;-5.29;72.71
38530;BME280;24301;54.332;48.386;2022-12-10T11:09:57;99829.78;;;-5.28;72.50
38530;BME280;24301;54.332;48.386;2022-12-10T11:12:39;99815.47;;;-5.24;72.40
38530;BME280;24301;54.332;48.386;2022-12-10T11:17:53;99823.00;;;-5.27;72.41
38530;BME280;24301;54.332;48.386;2022-12-10T11:20:31;99821.28;;;-5.27;72.26
38530;BME280;24301;54.332;48.386;2022-12-10T11:23:08;99817.25;;;-5.23;71.76
38530;BME280;24301;54.332;48.386;2022-12-10T11:28:19;99821.66;;;-5.21;71.97
38530;BME280;24301;54.332;48.386;2022-12-10T11:33:48;99835.19;;;-5.23;71.38
38530;BME280;24301;54.332;48.386;2022-12-10T11:42:14;99824.47;;;-5.31;70.98
38530;BME280;24301;54.332;48.386;2022-12-10T11:45:01;99818.72;;;-5.27;71.15
38530;BME280;24301;54.332;48.386;2022-12-10T11:56:36;99793.59;;;-5.32;70.85
38530;BME280;24301;54.332;48.386;2022-12-10T11:59:28;99804.38;;;-5.38;70.67
38530;BME280;24301;54.332;48.386;2022-12-10T12:02:07;99809.50;;;-5.38;70.58
38530;BME280;24301;54.332;48.386;2022-12-10T12:10:17;99816.59;;;-5.34;71.00
38530;BME280;24301;54.332;48.386;2022-12-10T12:13:04;99821.78;;;-5.32;71.04
38530;BME280;24301;54.332;48.386;2022-12-10T12:15:40;99830.69;;;-5.27;71.12
38530;BME280;24301;54.332;48.386;2022-12-10T12:20:46;99786.19;;;-5.28;70.65
38530;BME280;24301;54.332;48.386;2022-12-10T12:23:28;99807.69;;;-5.26;71.16
38530;BME280;24301;54.332;48.386;2022-12-10T12:26:15;99798.22;;;-5.27;71.07
38530;BME280;24301;54.332;48.386;2022-12-10T12:28:54;99770.66;;;-5.16;71.04
38530;BME280;24301;54.332;48.386;2022-12-10T12:31:34;99780.06;;;-5.16;70.77
38530;BME280;24301;54.332;48.386;2022-12-10T12:36:50;99796.00;;;-5.07;70.05
38530;BME280;24301;54.332;48.386;2022-12-10T12:42:03;99813.34;;;-5.03;70.56
38530;BME280;24301;54.332;48.386;2022-12-10T12:44:57;99828.97;;;-5.13;69.90
38530;BME280;24301;54.332;48.386;2022-12-10T12:50:00;99842.34;;;-5.73;67.90
38530;BME280;24301;54.332;48.386;2022-12-10T12:52:40;99840.69;;;-5.86;69.34
38530;BME280;24301;54.332;48.386;2022-12-10T12:58:47;99843.72;;;-5.92;69.54
38530;BME280;24301;54.332;48.386;2022-12-10T13:01:34;99844.31;;;-5.96;69.79
38530;BME280;24301;54.332;48.386;2022-12-10T13:04:02;99857.81;;;-6.12;69.79
38530;BME280;24301;54.332;48.386;2022-12-10T13:06:34;99846.16;;;-6.20;69.51
38530;BME280;24301;54.332;48.386;2022-12-10T13:11:46;99832.97;;;-6.26;69.64
38530;BME280;24301;54.332;48.386;2022-12-10T13:14:36;99833.63;;;-6.42;68.99
38530;BME280;24301;54.332;48.386;2022-12-10T13:17:35;99834.06;;;-6.61;68.75
38530;BME280;24301;54.332;48.386;2022-12-10T13:39:53;99826.72;;;-6.82;68.84
38530;BME280;24301;54.332;48.386;2022-12-10T13:42:27;99852.41;;;-6.81;68.34
38530;BME280;24301;54.332;48.386;2022-12-10T13:47:49;99825.91;;;-6.81;68.08
38530;BME280;24301;54.332;48.386;2022-12-10T13:50:35;99849.19;;;-6.90;67.18
38530;BME280;24301;54.332;48.386;2022-12-10T13:55:49;99840.69;;;-7.02;67.18
38530;BME280;24301;54.332;48.386;2022-12-10T14:01:33;99817.31;;;-6.95;67.51
38530;BME280;24301;54.332;48.386;2022-12-10T14:06:39;99813.13;;;-6.81;67.19
38530;BME280;24301;54.332;48.386;2022-12-10T14:09:32;99820.44;;;-6.74;67.58
38530;BME280;24301;54.332;48.386;2022-12-10T14:12:12;99783.69;;;-6.62;67.44
38530;BME280;24301;54.332;48.386;2022-12-10T14:14:43;99802.00;;;-6.56;66.76
38530;BME280;24301;54.332;48.386;2022-12-10T14:17:20;99787.25;;;-6.47;66.53
38530;BME280;24301;54.332;48.386;2022-12-10T14:19:50;99784.41;;;-6.38;66.25
38530;BME280;24301;54.332;48.386;2022-12-10T14:22:31;99786.50;;;-6.32;66.03
38530;BME280;24301;54.332;48.386;2022-12-10T14:25:03;99781.19;;;-6.36;65.29
38530;BME280;24301;54.332;48.386;2022-12-10T14:27:30;99768.97;;;-6.40;65.62
38530;BME280;24301;54.332;48.386;2022-12-10T14:30:06;99761.69;;;-6.33;65.61
38530;BME280;24301;54.332;48.386;2022-12-10T14:32:40;99757.16;;;-6.38;64.86
38530;BME280;24301;54.332;48.386;2022-12-10T14:35:16;99777.22;;;-6.44;65.11
38530;BME280;24301;54.332;48.386;2022-12-10T14:37:45;99793.47;;;-6.43;65.23
38530;BME280;24301;54.332;48.386;2022-12-10T14:40:24;99771.69;;;-6.50;65.02
38530;BME280;24301;54.332;48.386;2022-12-10T14:42:57;99758.09;;;-6.49;65.44
38530;BME280;24301;54.332;48.386;2022-12-10T14:45:28;99778.56;;;-6.49;64.86
38530;BME280;24301;54.332;48.386;2022-12-10T14:48:00;99764.31;;;-6.45;65.40